createdAt,value
2018-06-24T00:01:25.642Z,99.90
2018-06-24T00:03:52.592Z,99.90
2018-06-24T00:06:19.552Z,99.90
2018-06-24T00:08:46.465Z,99.90
2018-06-24T00:11:13.766Z,99.90
2018-06-24T00:13:40.849Z,99.90
2018-06-24T00:16:07.727Z,99.90
2018-06-24T00:18:34.683Z,99.90
2018-06-24T00:21:01.577Z,99.90
2018-06-24T00:23:28.525Z,99.90
2018-06-24T00:25:55.542Z,99.90
2018-06-24T00:28:23.166Z,99.90
2018-06-24T00:30:50.109Z,99.90
2018-06-24T00:33:16.994Z,99.90
2018-06-24T00:35:44.668Z,99.90
2018-06-24T00:38:12.269Z,99.90
2018-06-24T00:40:39.222Z,99.90
2018-06-24T00:43:06.149Z,99.90
2018-06-24T00:45:33.100Z,99.90
2018-06-24T00:48:00.017Z,99.90
2018-06-24T00:50:26.955Z,99.90
2018-06-24T00:52:54.565Z,99.90
2018-06-24T00:55:21.492Z,99.90
2018-06-24T00:57:48.417Z,99.90
2018-06-24T01:00:15.411Z,99.90
2018-06-24T01:02:42.275Z,99.90
2018-06-24T01:05:09.197Z,99.90
2018-06-24T01:07:36.306Z,99.90
2018-06-24T01:10:03.285Z,99.90
2018-06-24T01:12:30.240Z,99.90
2018-06-24T01:14:57.166Z,99.90
2018-06-24T01:17:24.068Z,99.90
2018-06-24T01:19:51.013Z,99.90
2018-06-24T01:22:17.944Z,99.90
2018-06-24T01:24:44.825Z,99.90
2018-06-24T01:27:11.820Z,99.90
2018-06-24T01:29:38.668Z,99.90
2018-06-24T01:32:05.531Z,99.90
2018-06-24T01:34:32.460Z,99.90
2018-06-24T01:36:59.415Z,99.90
2018-06-24T01:39:26.292Z,99.90
2018-06-24T01:41:53.885Z,99.90
2018-06-24T01:44:20.801Z,99.90
2018-06-24T01:46:47.676Z,99.90
2018-06-24T01:49:14.599Z,99.90
2018-06-24T01:51:41.533Z,99.90
2018-06-24T01:54:08.459Z,99.90
2018-06-24T01:56:35.372Z,99.90
2018-06-24T01:59:02.282Z,99.90
2018-06-24T02:01:29.224Z,99.90
2018-06-24T02:03:56.092Z,99.90
2018-06-24T02:06:23.045Z,99.90
2018-06-24T02:08:49.921Z,99.90
2018-06-24T02:11:16.849Z,99.90
2018-06-24T02:13:43.787Z,99.90
2018-06-24T02:16:10.721Z,99.90
2018-06-24T02:18:37.602Z,99.90
2018-06-24T02:21:04.503Z,99.90
2018-06-24T02:23:31.408Z,99.90
2018-06-24T02:25:58.298Z,99.90
2018-06-24T02:28:25.225Z,99.90
2018-06-24T02:30:52.096Z,99.90
2018-06-24T02:33:19.023Z,99.90
2018-06-24T02:35:45.893Z,99.90
2018-06-24T02:38:12.844Z,99.90
2018-06-24T02:40:54.501Z,99.90
2018-06-24T02:46:28.090Z,99.90
2018-06-24T02:49:08.562Z,99.90
2018-06-24T02:51:36.144Z,99.90
2018-06-24T02:54:03.087Z,99.90
2018-06-24T02:56:29.996Z,99.90
2018-06-24T02:58:56.884Z,99.90
2018-06-24T03:01:23.901Z,99.90
2018-06-24T03:03:50.763Z,99.90
2018-06-24T03:06:17.660Z,99.90
2018-06-24T03:08:44.548Z,99.90
2018-06-24T03:11:11.424Z,99.90
2018-06-24T03:13:38.328Z,99.90
2018-06-24T03:16:05.233Z,99.90
2018-06-24T03:18:32.173Z,99.90
2018-06-24T03:20:59.048Z,99.90
2018-06-24T03:23:25.992Z,99.90
2018-06-24T03:25:52.869Z,99.90
2018-06-24T03:28:19.771Z,99.90
2018-06-24T03:30:46.622Z,99.90
2018-06-24T03:33:13.566Z,99.90
2018-06-24T03:35:40.413Z,99.90
2018-06-24T03:38:07.346Z,99.90
2018-06-24T03:40:34.293Z,99.90
2018-06-24T03:43:01.145Z,99.90
2018-06-24T03:45:28.030Z,99.90
2018-06-24T03:47:55.686Z,99.90
2018-06-24T03:50:22.634Z,99.90
2018-06-24T03:52:50.293Z,99.90
2018-06-24T03:55:17.918Z,99.90
2018-06-24T03:57:44.847Z,99.90
2018-06-24T04:00:11.704Z,99.90
2018-06-24T04:02:38.709Z,99.90
2018-06-24T04:05:05.604Z,99.90
2018-06-24T04:07:32.528Z,99.90
2018-06-24T04:09:59.401Z,99.90
2018-06-24T04:12:26.311Z,99.90
2018-06-24T04:14:53.186Z,99.90
2018-06-24T04:17:20.143Z,99.90
2018-06-24T04:19:47.042Z,99.90
2018-06-24T04:22:13.962Z,99.90
2018-06-24T04:24:40.899Z,99.90
2018-06-24T04:27:21.355Z,99.90
2018-06-24T04:29:49.169Z,99.90
2018-06-24T04:32:16.033Z,99.90
2018-06-24T04:34:42.963Z,99.90
2018-06-24T04:37:09.832Z,99.90
2018-06-24T04:39:36.763Z,99.90
2018-06-24T04:42:03.752Z,99.90
2018-06-24T04:44:30.693Z,99.90
2018-06-24T04:46:57.548Z,99.90
2018-06-24T04:49:36.512Z,99.90
2018-06-24T04:52:05.585Z,99.90
2018-06-24T04:54:33.279Z,99.90
2018-06-24T04:57:00.188Z,99.90
2018-06-24T04:59:27.123Z,99.90
2018-06-24T05:01:54.776Z,99.90
2018-06-24T05:04:21.651Z,99.90
2018-06-24T05:06:49.312Z,99.90
2018-06-24T05:09:16.979Z,99.90
2018-06-24T05:11:44.577Z,99.90
2018-06-24T05:14:11.529Z,99.90
2018-06-24T05:16:38.429Z,99.90
2018-06-24T05:19:06.154Z,99.90
2018-06-24T05:21:33.049Z,99.90
2018-06-24T05:23:59.992Z,99.90
2018-06-24T05:26:26.906Z,98.90
2018-06-24T05:28:53.915Z,97.90
2018-06-24T05:31:20.768Z,97.40
2018-06-24T05:33:47.629Z,97.20
2018-06-24T05:36:14.557Z,98.40
2018-06-24T05:38:41.429Z,99.60
2018-06-24T05:41:08.393Z,99.90
2018-06-24T05:43:35.257Z,99.90
2018-06-24T05:46:02.239Z,99.90
2018-06-24T05:48:29.141Z,99.90
2018-06-24T05:50:56.857Z,99.90
2018-06-24T05:53:24.595Z,99.90
2018-06-24T05:55:51.520Z,99.90
2018-06-24T05:58:18.430Z,99.90
2018-06-24T06:00:45.482Z,99.90
2018-06-24T06:03:22.704Z,99.90
2018-06-24T06:05:50.351Z,99.90
2018-06-24T06:08:18.098Z,99.90
2018-06-24T06:10:59.170Z,99.90
2018-06-24T06:13:27.039Z,99.90
2018-06-24T06:15:54.019Z,99.90
2018-06-24T06:18:21.056Z,99.90
2018-06-24T06:20:48.679Z,99.90
2018-06-24T06:23:15.542Z,99.90
2018-06-24T06:25:42.464Z,99.90
2018-06-24T06:28:09.339Z,99.90
2018-06-24T06:30:36.276Z,99.90
2018-06-24T06:33:03.256Z,99.90
2018-06-24T06:35:30.940Z,99.90
2018-06-24T06:37:57.873Z,99.90
2018-06-24T06:40:24.873Z,99.90
2018-06-24T06:42:51.798Z,99.90
2018-06-24T06:45:18.860Z,99.90
2018-06-24T06:47:46.446Z,99.90
2018-06-24T06:50:13.339Z,99.90
2018-06-24T06:52:40.313Z,99.90
2018-06-24T06:55:07.285Z,99.90
2018-06-24T06:57:34.160Z,99.90
2018-06-24T07:00:01.860Z,99.90
2018-06-24T07:02:28.800Z,99.90
2018-06-24T07:04:55.672Z,99.90
2018-06-24T07:07:22.594Z,99.90
2018-06-24T07:09:49.462Z,99.90
2018-06-24T07:12:16.437Z,99.90
2018-06-24T07:14:44.113Z,99.10
2018-06-24T07:17:11.129Z,99.10
2018-06-24T07:19:38.008Z,99.00
2018-06-24T07:22:04.958Z,98.60
2018-06-24T07:24:31.812Z,98.40
2018-06-24T07:26:58.759Z,98.00
2018-06-24T07:29:25.631Z,98.20
2018-06-24T07:31:52.524Z,98.50
2018-06-24T07:34:19.452Z,99.40
2018-06-24T07:36:47.084Z,98.80
2018-06-24T07:39:14.051Z,98.80
2018-06-24T07:41:40.989Z,98.70
2018-06-24T07:44:07.932Z,98.30
2018-06-24T07:46:34.826Z,98.40
2018-06-24T07:49:01.759Z,98.20
2018-06-24T07:51:29.447Z,97.90
2018-06-24T07:53:56.454Z,97.90
2018-06-24T07:56:23.396Z,97.70
2018-06-24T07:58:50.288Z,98.20
2018-06-24T08:01:17.232Z,97.20
2018-06-24T08:03:44.115Z,96.30
2018-06-24T08:06:11.055Z,96.00
2018-06-24T08:08:37.932Z,96.20
2018-06-24T08:11:04.939Z,95.60
2018-06-24T08:13:31.824Z,95.70
2018-06-24T08:15:58.748Z,95.60
2018-06-24T08:18:25.672Z,95.60
2018-06-24T08:20:52.620Z,94.90
2018-06-24T08:23:19.647Z,95.30
2018-06-24T08:25:46.517Z,95.40
2018-06-24T08:28:13.452Z,95.70
2018-06-24T08:30:40.375Z,95.60
2018-06-24T08:33:07.320Z,95.80
2018-06-24T08:35:34.261Z,95.90
2018-06-24T08:38:15.195Z,96.10
2018-06-24T08:40:43.692Z,96.30
2018-06-24T08:43:10.640Z,96.30
2018-06-24T08:45:44.652Z,96.20
2018-06-24T08:48:11.572Z,96.10
2018-06-24T08:50:40.125Z,96.20
2018-06-24T08:53:07.072Z,96.30
2018-06-24T08:55:34.095Z,96.30
2018-06-24T08:58:01.737Z,96.10
2018-06-24T09:00:41.554Z,96.60
2018-06-24T09:03:10.564Z,96.50
2018-06-24T09:05:42.042Z,95.70
2018-06-24T09:08:22.364Z,95.70
2018-06-24T09:10:49.320Z,95.80
2018-06-24T09:13:24.139Z,95.50
2018-06-24T09:15:51.201Z,95.20
2018-06-24T09:18:18.361Z,95.40
2018-06-24T09:20:45.353Z,94.90
2018-06-24T09:23:12.958Z,94.60
2018-06-24T09:25:39.987Z,94.80
2018-06-24T09:28:06.894Z,94.30
2018-06-24T09:30:34.788Z,93.70
2018-06-24T09:33:01.793Z,93.70
2018-06-24T09:35:28.749Z,92.90
2018-06-24T09:37:55.729Z,93.70
2018-06-24T09:40:22.610Z,93.50
2018-06-24T09:42:49.630Z,92.40
2018-06-24T09:45:16.977Z,92.40
2018-06-24T09:47:43.877Z,91.40
2018-06-24T09:50:10.822Z,92.10
2018-06-24T09:52:39.358Z,90.50
2018-06-24T09:55:06.467Z,90.50
2018-06-24T09:57:33.473Z,91.30
2018-06-24T10:00:01.140Z,91.80
2018-06-24T10:02:28.095Z,91.80
2018-06-24T10:04:55.000Z,93.00
2018-06-24T10:07:21.957Z,93.40
2018-06-24T10:09:49.020Z,93.40
2018-06-24T10:12:15.961Z,94.60
2018-06-24T10:14:50.677Z,95.00
2018-06-24T10:17:18.136Z,95.00
2018-06-24T10:19:45.053Z,94.90
2018-06-24T10:22:12.668Z,95.70
2018-06-24T10:24:40.207Z,95.60
2018-06-24T10:27:07.335Z,95.90
2018-06-24T10:29:36.600Z,96.30
2018-06-24T10:32:03.947Z,96.30
2018-06-24T10:34:30.813Z,95.80
2018-06-24T10:39:47.692Z,96.60
2018-06-24T10:42:14.677Z,96.90
2018-06-24T10:44:41.650Z,96.50
2018-06-24T10:47:08.592Z,95.40
2018-06-24T10:49:36.272Z,95.00
2018-06-24T10:52:03.257Z,95.00
2018-06-24T10:54:30.205Z,93.80
2018-06-24T10:56:57.177Z,93.50
2018-06-24T10:59:24.816Z,93.20
2018-06-24T11:01:51.769Z,93.20
2018-06-24T11:04:18.731Z,93.30
2018-06-24T11:06:45.640Z,93.00
2018-06-24T11:09:13.708Z,92.30
2018-06-24T11:11:40.953Z,92.10
2018-06-24T11:28:59.041Z,91.50
2018-06-24T11:31:28.016Z,85.80
2018-06-24T11:34:07.564Z,87.60
2018-06-24T11:36:35.305Z,84.80
2018-06-24T11:39:02.322Z,85.80
2018-06-24T11:41:29.203Z,89.10
2018-06-24T11:47:18.273Z,87.90
2018-06-24T11:49:45.248Z,87.90
2018-06-24T11:52:12.089Z,89.50
2018-06-24T11:54:39.075Z,90.00
2018-06-24T11:57:05.969Z,90.20
2018-06-24T11:59:38.066Z,89.60
2018-06-24T12:02:05.178Z,90.20
2018-06-24T12:04:43.773Z,89.80
2018-06-24T12:07:25.283Z,90.10
2018-06-24T12:09:55.624Z,90.10
2018-06-24T12:12:36.593Z,88.50
2018-06-24T12:15:17.885Z,88.10
2018-06-24T12:17:59.639Z,86.90
2018-06-24T12:20:37.609Z,85.80
2018-06-24T12:23:13.455Z,85.80
2018-06-24T12:25:54.505Z,85.30
2018-06-24T12:28:22.017Z,85.30
2018-06-24T12:30:49.787Z,85.40
2018-06-24T12:33:16.884Z,85.40
2018-06-24T12:35:43.828Z,84.40
2018-06-24T12:38:10.756Z,85.80
2018-06-24T12:40:37.692Z,85.50
2018-06-24T12:43:04.713Z,87.30
2018-06-24T12:45:33.472Z,85.80
2018-06-24T12:48:00.420Z,85.10
2018-06-24T12:50:28.394Z,85.50
2018-06-24T12:52:55.558Z,87.00
2018-06-24T12:55:28.966Z,86.20
2018-06-24T12:58:03.466Z,86.90
2018-06-24T13:00:45.119Z,86.70
2018-06-24T13:03:25.432Z,86.50
2018-06-24T13:06:05.690Z,86.30
2018-06-24T13:08:43.659Z,85.80
2018-06-24T13:11:11.462Z,87.30
2018-06-24T13:13:40.974Z,88.50
2018-06-24T13:16:08.014Z,87.00
2018-06-24T13:18:34.953Z,86.80
2018-06-24T13:21:01.941Z,86.50
2018-06-24T13:23:29.762Z,87.70
2018-06-24T13:25:57.385Z,89.30
2018-06-24T13:28:24.325Z,88.90
2018-06-24T13:30:53.226Z,89.30
2018-06-24T13:33:20.548Z,89.80
2018-06-24T13:35:48.086Z,90.40
2018-06-24T13:38:14.984Z,90.20
2018-06-24T13:40:41.969Z,90.50
2018-06-24T13:43:08.924Z,90.10
2018-06-24T13:45:37.117Z,91.30
2018-06-24T13:48:04.041Z,92.10
2018-06-24T13:50:32.220Z,91.90
2018-06-24T13:52:59.098Z,91.40
2018-06-24T13:55:26.787Z,91.10
2018-06-24T13:57:53.944Z,91.10
2018-06-24T14:00:21.026Z,90.70
2018-06-24T14:02:48.247Z,90.90
2018-06-24T14:05:15.168Z,91.20
2018-06-24T14:07:42.045Z,91.90
2018-06-24T14:10:12.360Z,91.90
2018-06-24T14:12:42.144Z,91.40
2018-06-24T14:15:09.131Z,89.70
2018-06-24T14:17:36.009Z,89.70
2018-06-24T14:20:04.010Z,89.00
2018-06-24T14:22:30.880Z,89.20
2018-06-24T14:24:57.728Z,89.20
2018-06-24T14:27:24.642Z,88.90
2018-06-24T14:29:52.244Z,89.10
2018-06-24T14:32:21.199Z,89.10
2018-06-24T14:34:48.080Z,87.90
2018-06-24T14:37:15.204Z,86.30
2018-06-24T14:39:42.220Z,85.90
2018-06-24T14:42:10.115Z,84.50
2018-06-24T14:44:36.983Z,84.90
2018-06-24T14:47:04.018Z,84.30
2018-06-24T14:49:30.894Z,82.10
2018-06-24T14:51:57.879Z,83.10
2018-06-24T14:54:25.864Z,85.90
2018-06-24T14:56:53.665Z,86.00
2018-06-24T14:59:20.570Z,85.90
2018-06-24T15:02:02.221Z,86.10
2018-06-24T15:04:36.953Z,86.10
2018-06-24T15:07:10.209Z,86.00
2018-06-24T15:09:43.653Z,85.30
2018-06-24T15:15:00.610Z,83.90
2018-06-24T15:17:36.700Z,83.00
2018-06-24T15:20:06.292Z,84.30
2018-06-24T15:22:52.345Z,84.10
2018-06-24T15:25:27.524Z,83.80
2018-06-24T15:30:53.561Z,85.00
2018-06-24T15:33:31.787Z,85.10
2018-06-24T15:36:14.914Z,83.90
2018-06-24T15:38:56.591Z,83.90
2018-06-24T15:41:38.436Z,84.60
2018-06-24T15:44:06.292Z,84.70
2018-06-24T15:46:33.514Z,83.70
2018-06-24T15:49:01.185Z,84.30
2018-06-24T15:51:33.577Z,85.10
2018-06-24T15:54:10.632Z,85.20
2018-06-24T15:56:53.470Z,84.70
2018-06-24T15:59:33.542Z,84.50
2018-06-24T16:02:05.647Z,83.50
2018-06-24T16:04:32.681Z,84.90
2018-06-24T16:07:00.956Z,85.90
2018-06-24T16:09:29.286Z,84.70
2018-06-24T16:12:11.807Z,84.60
2018-06-24T16:14:38.880Z,84.00
2018-06-24T16:17:05.916Z,84.40
2018-06-24T16:19:34.343Z,85.60
2018-06-24T16:22:01.204Z,84.80
2018-06-24T16:24:28.881Z,84.70
2018-06-24T16:26:56.497Z,85.00
2018-06-24T16:29:24.004Z,84.90
2018-06-24T16:31:51.633Z,83.50
2018-06-24T16:34:18.501Z,83.50
2018-06-24T16:36:47.762Z,83.30
2018-06-24T16:39:14.716Z,83.40
2018-06-24T16:41:42.040Z,84.10
2018-06-24T16:44:08.952Z,84.80
2018-06-24T16:46:37.480Z,85.00
2018-06-24T16:49:05.407Z,84.90
2018-06-24T16:51:32.753Z,84.30
2018-06-24T16:54:00.525Z,85.20
2018-06-24T16:56:30.344Z,84.90
2018-06-24T17:01:55.361Z,85.30
2018-06-24T17:04:35.487Z,85.70
2018-06-24T17:07:13.723Z,86.40
2018-06-24T17:09:54.704Z,86.20
2018-06-24T17:12:36.294Z,86.80
2018-06-24T17:15:15.694Z,86.20
2018-06-24T17:17:54.352Z,86.90
2018-06-24T17:20:33.412Z,87.30
2018-06-24T17:23:10.373Z,87.20
2018-06-24T17:25:48.494Z,87.30
2018-06-24T17:28:30.855Z,88.10
2018-06-24T17:31:07.376Z,87.80
2018-06-24T17:33:46.691Z,88.00
2018-06-24T17:36:24.333Z,88.90
2018-06-24T17:39:02.661Z,89.00
2018-06-24T17:41:45.672Z,89.00
2018-06-24T17:44:29.173Z,89.50
2018-06-24T17:47:09.568Z,89.80
2018-06-24T17:49:51.399Z,90.20
2018-06-24T17:52:33.439Z,90.00
2018-06-24T17:55:12.739Z,90.30
2018-06-24T17:57:52.788Z,90.40
2018-06-24T18:00:33.023Z,90.30
2018-06-24T18:05:58.291Z,90.50
2018-06-24T18:08:38.075Z,90.40
2018-06-24T18:11:21.027Z,90.40
2018-06-24T18:13:58.459Z,90.30
2018-06-24T18:16:36.352Z,90.50
2018-06-24T18:19:15.014Z,90.50
2018-06-24T18:21:54.091Z,90.60
2018-06-24T18:27:14.263Z,90.80
2018-06-24T18:29:56.373Z,90.60
2018-06-24T18:32:35.675Z,91.00
2018-06-24T18:35:17.598Z,90.90
2018-06-24T18:37:57.550Z,90.90
2018-06-24T18:40:38.885Z,90.90
2018-06-24T18:43:18.268Z,90.90
2018-06-24T18:45:58.125Z,91.10
2018-06-24T18:48:34.933Z,91.20
2018-06-24T18:51:16.915Z,91.30
2018-06-24T18:53:55.829Z,91.30
2018-06-24T18:56:37.394Z,91.60
2018-06-24T18:59:17.403Z,91.60
2018-06-24T19:01:57.891Z,91.60
2018-06-24T19:04:36.740Z,91.90
2018-06-24T19:07:16.808Z,92.00
2018-06-24T19:09:55.813Z,92.30
2018-06-24T19:12:32.191Z,92.20
2018-06-24T19:15:12.223Z,92.30
2018-06-24T19:17:52.362Z,92.60
2018-06-24T19:20:34.267Z,92.40
2018-06-24T19:23:11.846Z,92.60
2018-06-24T19:25:51.656Z,92.70
2018-06-24T19:28:29.291Z,93.00
2018-06-24T19:31:10.421Z,93.40
2018-06-24T19:33:51.564Z,93.10
2018-06-24T19:36:29.233Z,93.10
2018-06-24T19:41:52.587Z,93.70
2018-06-24T19:44:33.589Z,93.40
2018-06-24T19:47:14.904Z,93.80
2018-06-24T19:49:54.286Z,94.10
2018-06-24T19:52:22.790Z,94.30
2018-06-24T19:54:50.564Z,94.20
2018-06-24T20:00:17.158Z,94.60
2018-06-24T20:02:57.563Z,94.60
2018-06-24T20:05:39.687Z,94.90
2018-06-24T20:08:21.927Z,95.10
2018-06-24T20:11:04.089Z,95.20
2018-06-24T20:13:46.551Z,95.50
2018-06-24T20:16:20.546Z,95.50
2018-06-24T20:19:02.371Z,95.70
2018-06-24T20:21:44.426Z,95.70
2018-06-24T20:27:12.034Z,96.00
2018-06-24T20:29:52.998Z,96.20
2018-06-24T20:32:21.935Z,96.30
2018-06-24T20:34:57.735Z,96.40
2018-06-24T20:37:34.159Z,96.40
2018-06-24T20:40:02.193Z,96.70
2018-06-24T20:42:42.548Z,96.70
2018-06-24T20:45:15.644Z,96.80
2018-06-24T20:47:42.630Z,96.80
2018-06-24T20:50:09.692Z,97.10
2018-06-24T20:52:36.849Z,97.00
2018-06-24T20:55:08.667Z,97.20
2018-06-24T20:57:35.715Z,97.40
2018-06-24T21:00:02.678Z,97.50
2018-06-24T21:02:36.388Z,97.60
2018-06-24T21:05:03.349Z,97.60
2018-06-24T21:07:30.950Z,97.70
2018-06-24T21:09:57.802Z,97.80
2018-06-24T21:12:24.661Z,97.80
2018-06-24T21:14:51.612Z,97.80
2018-06-24T21:17:18.505Z,97.90
2018-06-24T21:19:54.935Z,98.00
2018-06-24T21:22:31.440Z,98.00
2018-06-24T21:24:59.580Z,98.20
2018-06-24T21:27:26.704Z,98.50
2018-06-24T21:30:05.556Z,98.60
2018-06-24T21:32:42.022Z,98.80
2018-06-24T21:35:08.967Z,98.70
2018-06-24T21:37:35.879Z,99.10
2018-06-24T21:40:02.835Z,98.70
2018-06-24T21:42:34.710Z,99.00
2018-06-24T21:45:15.813Z,99.00
2018-06-24T21:47:43.586Z,99.20
2018-06-24T21:50:10.456Z,99.30
2018-06-24T21:52:37.448Z,99.20
2018-06-24T21:55:04.466Z,99.60
2018-06-24T21:57:32.139Z,99.50
2018-06-24T21:59:59.820Z,99.50
2018-06-24T22:02:26.680Z,99.60
2018-06-24T22:04:53.679Z,99.90
2018-06-24T22:07:21.450Z,99.90
2018-06-24T22:09:49.123Z,99.90
2018-06-24T22:12:30.503Z,99.90
2018-06-24T22:14:59.340Z,99.90
2018-06-24T22:17:26.913Z,99.90
2018-06-24T22:19:55.655Z,99.90
2018-06-24T22:22:23.687Z,99.90
2018-06-24T22:24:51.465Z,99.90
2018-06-24T22:27:19.248Z,99.90
2018-06-24T22:29:47.803Z,99.90
2018-06-24T22:32:15.723Z,99.90
2018-06-24T22:34:44.332Z,99.90
2018-06-24T22:37:12.251Z,99.90
2018-06-24T22:39:39.841Z,99.90
2018-06-24T22:42:07.720Z,99.90
2018-06-24T22:44:35.642Z,99.90
2018-06-24T22:47:04.210Z,99.90
2018-06-24T22:49:34.864Z,99.90
2018-06-24T22:52:02.119Z,99.90
2018-06-24T22:54:30.715Z,99.90
2018-06-24T22:56:59.294Z,99.90
2018-06-24T22:59:48.584Z,99.90
2018-06-24T23:02:16.343Z,99.90
2018-06-24T23:04:43.287Z,99.90
2018-06-24T23:07:10.506Z,99.90
2018-06-24T23:09:50.387Z,99.90
2018-06-24T23:12:32.461Z,99.90
2018-06-24T23:15:11.081Z,99.90
2018-06-24T23:17:48.292Z,99.90
2018-06-24T23:20:27.639Z,99.90
2018-06-24T23:23:06.797Z,99.90
2018-06-24T23:25:44.284Z,99.90
2018-06-24T23:28:24.436Z,99.90
2018-06-24T23:31:04.701Z,99.90
2018-06-24T23:33:47.627Z,99.90
2018-06-24T23:36:27.424Z,99.90
2018-06-24T23:39:05.538Z,99.90
2018-06-24T23:41:45.691Z,99.90
2018-06-24T23:44:24.089Z,99.90
2018-06-24T23:47:02.268Z,99.90
2018-06-24T23:49:44.321Z,99.90
2018-06-24T23:52:24.467Z,99.90
2018-06-24T23:55:05.529Z,99.90
2018-06-24T23:57:44.225Z,99.90
